createdAt,value
2022-11-26T00:02:32.232Z,6.18
2022-11-26T00:05:00.734Z,6.10
2022-11-26T00:07:30.851Z,6.07
2022-11-26T00:10:00.673Z,6.06
2022-11-26T00:12:32.151Z,6.01
2022-11-26T00:15:02.765Z,5.94
2022-11-26T00:17:30.464Z,5.89
2022-11-26T00:19:58.387Z,5.85
2022-11-26T00:22:37.110Z,5.83
2022-11-26T00:25:04.970Z,5.77
2022-11-26T00:27:32.677Z,5.80
2022-11-26T00:30:00.320Z,5.83
2022-11-26T00:32:27.995Z,5.85
2022-11-26T00:34:55.660Z,5.86
2022-11-26T00:37:36.530Z,5.83
2022-11-26T00:40:04.384Z,5.83
2022-11-26T00:42:32.123Z,5.87
2022-11-26T00:44:59.753Z,5.88
2022-11-26T00:47:27.409Z,5.90
2022-11-26T00:49:55.032Z,5.92
2022-11-26T00:52:33.667Z,5.93
2022-11-26T00:55:08.301Z,5.91
2022-11-26T00:57:36.378Z,5.92
2022-11-26T01:00:07.646Z,5.93
2022-11-26T01:02:35.371Z,5.92
2022-11-26T01:05:03.037Z,5.90
2022-11-26T01:07:31.412Z,5.90
2022-11-26T01:09:59.120Z,5.93
2022-11-26T01:12:26.912Z,5.95
2022-11-26T01:14:54.675Z,5.98
2022-11-26T01:17:22.286Z,6.02
2022-11-26T01:19:50.051Z,6.02
2022-11-26T01:22:23.449Z,5.99
2022-11-26T01:24:51.296Z,6.05
2022-11-26T01:27:21.754Z,6.05
2022-11-26T01:29:49.434Z,6.02
2022-11-26T01:32:17.181Z,5.96
2022-11-26T01:34:44.780Z,5.91
2022-11-26T01:37:15.203Z,5.83
2022-11-26T01:39:42.933Z,5.80
2022-11-26T01:42:25.795Z,5.71
2022-11-26T01:44:53.403Z,5.64
2022-11-26T01:47:28.374Z,5.63
2022-11-26T01:50:30.443Z,5.56
2022-11-26T01:53:24.183Z,5.54
2022-11-26T01:56:14.196Z,5.44
2022-11-26T01:58:47.552Z,5.34
2022-11-26T02:01:15.363Z,5.30
2022-11-26T02:03:54.647Z,5.29
2022-11-26T02:06:27.782Z,5.28
2022-11-26T02:08:56.719Z,5.25
2022-11-26T02:11:25.698Z,5.25
2022-11-26T02:13:57.248Z,5.19
2022-11-26T02:16:43.734Z,5.15
2022-11-26T02:19:48.696Z,5.14
2022-11-26T02:22:31.240Z,5.14
2022-11-26T02:25:28.567Z,5.08
2022-11-26T02:28:08.099Z,5.01
2022-11-26T02:30:44.341Z,5.02
2022-11-26T02:33:14.923Z,5.09
2022-11-26T02:35:50.909Z,5.14
2022-11-26T02:38:34.063Z,5.15
2022-11-26T02:41:02.788Z,5.20
2022-11-26T02:43:32.244Z,5.23
2022-11-26T02:46:05.973Z,5.29
2022-11-26T02:48:39.925Z,5.38
2022-11-26T02:51:14.265Z,5.40
2022-11-26T02:53:43.030Z,5.38
2022-11-26T02:56:18.333Z,5.39
2022-11-26T02:58:46.818Z,5.41
2022-11-26T03:01:30.355Z,5.41
2022-11-26T03:04:03.077Z,5.45
2022-11-26T03:06:34.349Z,5.46
2022-11-26T03:09:02.463Z,5.47
2022-11-26T03:11:30.374Z,5.47
2022-11-26T03:13:58.256Z,5.49
2022-11-26T03:16:26.078Z,5.48
2022-11-26T03:18:54.015Z,5.53
2022-11-26T03:21:21.685Z,5.53
2022-11-26T03:23:49.453Z,5.53
2022-11-26T03:26:17.286Z,5.55
2022-11-26T03:28:44.913Z,5.52
2022-11-26T03:31:12.651Z,5.50
2022-11-26T03:33:40.362Z,5.50
2022-11-26T03:36:08.526Z,5.51
2022-11-26T03:38:36.359Z,5.50
2022-11-26T03:41:05.499Z,5.50
2022-11-26T03:43:33.141Z,5.44
2022-11-26T03:46:00.874Z,5.44
2022-11-26T03:48:28.577Z,5.43
2022-11-26T03:50:56.288Z,5.47
2022-11-26T03:53:23.897Z,5.50
2022-11-26T03:55:51.610Z,5.49
2022-11-26T03:58:19.286Z,5.50
2022-11-26T04:00:46.982Z,5.54
2022-11-26T04:03:14.720Z,5.51
2022-11-26T04:05:42.452Z,5.50
2022-11-26T04:08:10.308Z,5.49
2022-11-26T04:10:38.109Z,5.53
2022-11-26T04:13:05.741Z,5.55
2022-11-26T04:15:33.396Z,5.56
2022-11-26T04:18:01.092Z,5.60
2022-11-26T04:20:29.388Z,5.67
2022-11-26T04:22:57.125Z,5.70
2022-11-26T04:25:24.732Z,5.70
2022-11-26T04:27:52.429Z,5.69
2022-11-26T04:30:20.399Z,5.69
2022-11-26T04:32:48.071Z,5.69
2022-11-26T04:35:15.849Z,5.70
2022-11-26T04:37:43.563Z,5.73
2022-11-26T04:40:12.151Z,5.77
2022-11-26T04:42:39.791Z,5.80
2022-11-26T04:45:08.097Z,5.85
2022-11-26T04:47:40.063Z,5.92
2022-11-26T04:50:11.317Z,5.96
2022-11-26T04:52:38.964Z,6.05
2022-11-26T04:55:06.943Z,6.09
2022-11-26T04:57:34.633Z,6.13
2022-11-26T05:00:02.433Z,6.20
2022-11-26T05:02:30.114Z,6.28
2022-11-26T05:04:57.830Z,6.37
2022-11-26T05:07:25.616Z,6.39
2022-11-26T05:09:53.291Z,6.41
2022-11-26T05:12:20.956Z,6.42
2022-11-26T05:14:48.587Z,6.42
2022-11-26T05:17:16.272Z,6.41
2022-11-26T05:19:43.875Z,6.35
2022-11-26T05:22:11.557Z,6.26
2022-11-26T05:24:39.431Z,6.19
2022-11-26T05:27:07.325Z,6.12
2022-11-26T05:29:36.287Z,6.14
2022-11-26T05:32:04.189Z,6.15
2022-11-26T05:34:31.976Z,6.18
2022-11-26T05:36:59.616Z,6.22
2022-11-26T05:39:27.405Z,6.26
2022-11-26T05:41:55.041Z,6.24
2022-11-26T05:44:22.768Z,6.20
2022-11-26T05:46:50.421Z,6.12
2022-11-26T05:49:18.441Z,6.04
2022-11-26T05:51:46.060Z,5.99
2022-11-26T05:54:15.525Z,5.97
2022-11-26T05:56:44.252Z,6.00
2022-11-26T05:59:12.452Z,6.05
2022-11-26T06:01:40.620Z,6.05
2022-11-26T06:04:08.268Z,6.07
2022-11-26T06:06:36.351Z,6.07
2022-11-26T06:09:05.035Z,6.12
2022-11-26T06:11:32.729Z,6.21
2022-11-26T06:14:00.413Z,6.24
2022-11-26T06:16:28.051Z,6.27
2022-11-26T06:18:55.808Z,6.31
2022-11-26T06:21:23.563Z,6.33
2022-11-26T06:23:57.561Z,6.35
2022-11-26T06:26:26.761Z,6.36
2022-11-26T06:28:54.430Z,6.36
2022-11-26T06:31:22.167Z,6.35
2022-11-26T06:33:53.782Z,6.38
2022-11-26T06:36:21.555Z,6.36
2022-11-26T06:38:49.600Z,6.35
2022-11-26T06:41:17.598Z,6.35
2022-11-26T06:43:45.219Z,6.38
2022-11-26T06:46:13.164Z,6.33
2022-11-26T06:48:41.607Z,6.31
2022-11-26T06:51:15.964Z,6.26
2022-11-26T06:53:44.236Z,6.23
2022-11-26T06:56:18.400Z,6.26
2022-11-26T06:58:47.797Z,6.27
2022-11-26T07:01:20.981Z,6.31
2022-11-26T07:03:49.415Z,6.31
2022-11-26T07:06:29.179Z,6.36
2022-11-26T07:08:58.753Z,6.38
2022-11-26T07:11:27.233Z,6.41
2022-11-26T07:13:56.494Z,6.47
2022-11-26T07:16:24.544Z,6.49
2022-11-26T07:18:59.234Z,6.51
2022-11-26T07:21:30.590Z,6.55
2022-11-26T07:23:58.981Z,6.51
2022-11-26T07:26:26.622Z,6.51
2022-11-26T07:28:55.174Z,6.45
2022-11-26T07:31:24.091Z,6.44
2022-11-26T07:33:52.369Z,6.34
2022-11-26T07:36:26.720Z,6.30
2022-11-26T07:38:56.067Z,6.28
2022-11-26T07:41:23.912Z,6.27
2022-11-26T07:43:52.383Z,6.24
2022-11-26T07:46:23.366Z,6.29
2022-11-26T07:48:51.239Z,6.30
2022-11-26T07:51:27.779Z,6.32
2022-11-26T07:53:56.650Z,6.38
2022-11-26T07:56:24.408Z,6.40
2022-11-26T07:58:52.285Z,6.35
2022-11-26T08:01:22.565Z,6.37
2022-11-26T08:03:52.321Z,6.38
2022-11-26T08:06:29.318Z,6.42
2022-11-26T08:08:57.117Z,6.48
2022-11-26T08:11:29.372Z,6.52
2022-11-26T08:14:03.138Z,6.52
2022-11-26T08:16:31.324Z,6.52
2022-11-26T08:19:01.281Z,6.50
2022-11-26T08:21:29.278Z,6.45
2022-11-26T08:23:57.811Z,6.45
2022-11-26T08:26:33.970Z,6.40
2022-11-26T08:29:04.395Z,6.41
2022-11-26T08:31:32.181Z,6.44
2022-11-26T08:34:00.827Z,6.46
2022-11-26T08:36:30.906Z,6.44
2022-11-26T08:38:59.942Z,6.41
2022-11-26T08:41:27.707Z,6.44
2022-11-26T08:44:10.644Z,6.44
2022-11-26T08:46:40.336Z,6.42
2022-11-26T08:49:11.326Z,6.38
2022-11-26T08:51:39.062Z,6.41
2022-11-26T08:54:06.836Z,6.37
2022-11-26T08:56:35.582Z,6.39
2022-11-26T08:59:03.602Z,6.41
2022-11-26T09:01:33.591Z,6.41
2022-11-26T09:04:03.702Z,6.38
2022-11-26T09:06:32.781Z,6.36
2022-11-26T09:09:14.396Z,6.32
2022-11-26T09:11:49.974Z,6.30
2022-11-26T09:14:20.382Z,6.32
2022-11-26T09:16:48.956Z,6.36
2022-11-26T09:19:17.880Z,6.40
2022-11-26T09:21:46.955Z,6.46
2022-11-26T09:24:15.426Z,6.54
2022-11-26T09:26:43.290Z,6.62
2022-11-26T09:29:15.264Z,6.71
2022-11-26T09:32:15.284Z,6.75
2022-11-26T09:34:34.968Z,6.80
2022-11-26T09:37:03.105Z,6.74
2022-11-26T09:39:30.907Z,6.96
2022-11-26T09:42:13.090Z,6.93
2022-11-26T09:45:17.926Z,6.98
2022-11-26T09:47:49.714Z,7.04
2022-11-26T09:50:17.319Z,7.10
2022-11-26T09:53:14.030Z,7.17
2022-11-26T09:55:44.942Z,7.19
2022-11-26T09:58:30.426Z,7.23
2022-11-26T10:01:00.256Z,7.28
2022-11-26T10:03:34.404Z,7.32
2022-11-26T10:06:08.158Z,7.35
2022-11-26T10:09:01.840Z,7.43
2022-11-26T10:11:50.203Z,7.50
2022-11-26T10:14:47.000Z,7.58
2022-11-26T10:17:27.042Z,7.60
2022-11-26T10:20:19.639Z,7.63
2022-11-26T10:22:57.058Z,7.59
2022-11-26T10:25:29.985Z,7.64
2022-11-26T10:28:00.292Z,7.62
2022-11-26T10:30:30.370Z,7.64
2022-11-26T10:33:01.988Z,7.66
2022-11-26T10:35:30.486Z,7.63
2022-11-26T10:37:59.251Z,7.59
2022-11-26T10:40:32.424Z,7.56
2022-11-26T10:43:04.748Z,7.61
2022-11-26T10:45:50.964Z,7.64
2022-11-26T10:48:28.647Z,7.68
2022-11-26T10:51:02.420Z,7.76
2022-11-26T10:53:35.452Z,7.81
2022-11-26T10:56:07.222Z,7.84
2022-11-26T10:58:43.165Z,7.86
2022-11-26T11:01:15.274Z,7.82
2022-11-26T11:04:11.006Z,7.78
2022-11-26T11:06:43.779Z,7.75
2022-11-26T11:09:38.180Z,7.73
2022-11-26T11:12:11.986Z,7.72
2022-11-26T11:14:43.526Z,7.76
2022-11-26T11:17:36.773Z,7.79
2022-11-26T11:20:27.243Z,7.84
2022-11-26T11:23:04.839Z,7.94
2022-11-26T11:25:35.744Z,8.05
2022-11-26T11:28:22.847Z,8.15
2022-11-26T11:31:24.221Z,8.25
2022-11-26T11:33:53.347Z,8.33
2022-11-26T11:36:29.920Z,8.34
2022-11-26T11:39:02.446Z,8.31
2022-11-26T11:41:49.979Z,8.33
2022-11-26T11:44:37.161Z,8.37
2022-11-26T11:47:35.965Z,8.42
2022-11-26T11:50:45.117Z,8.43
2022-11-26T11:53:40.411Z,8.45
2022-11-26T11:56:13.916Z,8.46
2022-11-26T11:59:06.056Z,8.45
2022-11-26T12:02:03.563Z,8.48
2022-11-26T12:04:37.414Z,8.47
2022-11-26T12:07:38.597Z,8.52
2022-11-26T12:10:10.476Z,8.55
2022-11-26T12:12:53.562Z,8.62
2022-11-26T12:15:31.748Z,8.65
2022-11-26T12:18:14.116Z,8.68
2022-11-26T12:20:47.271Z,8.71
2022-11-26T12:23:36.318Z,8.73
2022-11-26T12:26:22.231Z,8.74
2022-11-26T12:28:58.867Z,8.73
2022-11-26T12:31:32.691Z,8.72
2022-11-26T12:34:04.186Z,8.72
2022-11-26T12:36:45.498Z,8.71
2022-11-26T12:39:20.342Z,8.68
2022-11-26T12:41:57.476Z,8.69
2022-11-26T12:44:32.625Z,8.71
2022-11-26T12:47:10.672Z,8.70
2022-11-26T12:49:48.602Z,8.67
2022-11-26T12:52:53.677Z,8.67
2022-11-26T12:55:27.926Z,8.64
2022-11-26T12:58:01.894Z,8.67
2022-11-26T13:00:36.575Z,8.70
2022-11-26T13:03:07.287Z,8.71
2022-11-26T13:06:09.249Z,8.71
2022-11-26T13:08:49.651Z,8.70
2022-11-26T13:11:26.152Z,8.65
2022-11-26T13:14:15.499Z,8.62
2022-11-26T13:16:52.359Z,8.60
2022-11-26T13:19:45.994Z,8.58
2022-11-26T13:22:44.589Z,8.54
2022-11-26T13:25:36.150Z,8.47
2022-11-26T13:28:13.288Z,8.42
2022-11-26T13:31:18.084Z,8.38
2022-11-26T13:34:26.228Z,8.34
2022-11-26T13:37:48.039Z,8.33
2022-11-26T13:40:45.658Z,8.30
2022-11-26T13:43:28.493Z,8.28
2022-11-26T13:46:08.234Z,8.30
2022-11-26T13:48:52.400Z,8.32
2022-11-26T13:51:29.362Z,8.29
2022-11-26T13:54:09.917Z,8.29
2022-11-26T13:56:39.397Z,8.30
2022-11-26T13:59:19.451Z,8.29
2022-11-26T14:01:50.181Z,8.30
2022-11-26T14:04:23.587Z,8.31
2022-11-26T14:07:06.593Z,8.29
2022-11-26T14:09:55.689Z,8.28
2022-11-26T14:13:01.503Z,8.24
2022-11-26T14:15:56.893Z,8.24
2022-11-26T14:18:51.562Z,8.20
2022-11-26T14:21:20.770Z,8.17
2022-11-26T14:23:54.445Z,8.16
2022-11-26T14:26:40.191Z,8.11
2022-11-26T14:29:14.169Z,8.08
2022-11-26T14:31:55.639Z,8.07
2022-11-26T14:34:32.221Z,8.02
2022-11-26T14:37:02.280Z,8.03
2022-11-26T14:39:30.857Z,8.00
2022-11-26T14:42:05.644Z,8.00
2022-11-26T14:44:34.401Z,8.00
2022-11-26T14:47:20.964Z,7.99
2022-11-26T14:49:55.371Z,8.00
2022-11-26T14:52:27.669Z,7.99
2022-11-26T14:54:59.999Z,7.96
2022-11-26T14:57:43.308Z,7.93
2022-11-26T15:00:17.056Z,7.89
2022-11-26T15:02:49.402Z,7.86
2022-11-26T15:05:25.144Z,7.82
2022-11-26T15:08:08.172Z,7.81
2022-11-26T15:10:53.520Z,7.81
2022-11-26T15:13:32.396Z,7.78
2022-11-26T15:16:03.411Z,7.73
2022-11-26T15:18:34.147Z,7.70
2022-11-26T15:21:04.905Z,7.69
2022-11-26T15:23:37.171Z,7.65
2022-11-26T15:26:05.622Z,7.63
2022-11-26T15:28:39.722Z,7.58
2022-11-26T15:31:11.811Z,7.57
2022-11-26T15:33:40.816Z,7.54
2022-11-26T15:36:14.247Z,7.52
2022-11-26T15:39:09.933Z,7.50
2022-11-26T15:41:44.594Z,7.45
2022-11-26T15:44:22.485Z,7.43
2022-11-26T15:46:54.072Z,7.40
2022-11-26T15:49:30.309Z,7.38
2022-11-26T15:52:11.260Z,7.37
2022-11-26T15:55:10.678Z,7.36
2022-11-26T15:57:37.369Z,7.36
2022-11-26T16:00:09.453Z,7.31
2022-11-26T16:02:39.951Z,7.28
2022-11-26T16:05:25.000Z,7.25
2022-11-26T16:08:01.568Z,7.19
2022-11-26T16:10:37.995Z,7.15
2022-11-26T16:13:17.352Z,7.12
2022-11-26T16:16:17.865Z,7.08
2022-11-26T16:19:01.346Z,7.01
2022-11-26T16:21:32.789Z,6.96
2022-11-26T16:24:07.056Z,6.91
2022-11-26T16:26:53.988Z,6.87
2022-11-26T16:29:21.744Z,6.82
2022-11-26T16:31:49.367Z,6.76
2022-11-26T16:34:16.979Z,6.69
2022-11-26T16:36:45.077Z,6.64
2022-11-26T16:39:18.175Z,6.62
2022-11-26T16:41:45.885Z,6.57
2022-11-26T16:44:13.571Z,6.58
2022-11-26T16:46:42.115Z,6.56
2022-11-26T16:49:11.898Z,6.51
2022-11-26T16:51:39.547Z,6.41
2022-11-26T16:54:07.234Z,6.31
2022-11-26T16:56:39.228Z,6.26
2022-11-26T16:59:15.039Z,6.20
2022-11-26T17:01:42.759Z,6.19
2022-11-26T17:04:13.295Z,6.12
2022-11-26T17:06:42.349Z,6.07
2022-11-26T17:09:20.187Z,6.07
2022-11-26T17:11:47.928Z,6.08
2022-11-26T17:14:15.752Z,6.03
2022-11-26T17:16:43.715Z,5.96
2022-11-26T17:19:14.354Z,5.92
2022-11-26T17:21:42.176Z,5.88
2022-11-26T17:24:09.961Z,5.87
2022-11-26T17:26:37.650Z,5.84
2022-11-26T17:29:05.501Z,5.87
2022-11-26T17:31:33.257Z,5.82
2022-11-26T17:34:01.038Z,5.80
2022-11-26T17:36:32.623Z,5.80
2022-11-26T17:39:03.015Z,5.77
2022-11-26T17:41:30.684Z,5.78
2022-11-26T17:43:58.361Z,5.78
2022-11-26T17:46:26.062Z,5.78
2022-11-26T17:48:59.366Z,5.78
2022-11-26T17:51:27.697Z,5.73
2022-11-26T17:53:55.535Z,5.68
2022-11-26T17:56:25.174Z,5.67
2022-11-26T17:58:52.890Z,5.64
2022-11-26T18:01:21.255Z,5.58
2022-11-26T18:03:49.134Z,5.57
2022-11-26T18:06:19.250Z,5.59
2022-11-26T18:08:47.576Z,5.59
2022-11-26T18:11:16.792Z,5.57
2022-11-26T18:13:44.797Z,5.58
2022-11-26T18:16:12.510Z,5.53
2022-11-26T18:18:40.167Z,5.51
2022-11-26T18:21:07.962Z,5.49
2022-11-26T18:23:35.747Z,5.43
2022-11-26T18:26:04.357Z,5.37
2022-11-26T18:28:32.141Z,5.27
2022-11-26T18:31:00.725Z,5.26
2022-11-26T18:33:28.539Z,5.19
2022-11-26T18:35:56.332Z,5.12
2022-11-26T18:38:26.110Z,5.05
2022-11-26T18:41:04.741Z,5.00
2022-11-26T18:43:36.904Z,4.92
2022-11-26T18:46:06.343Z,4.83
2022-11-26T18:48:38.101Z,4.78
2022-11-26T18:51:06.865Z,4.74
2022-11-26T18:53:35.291Z,4.66
2022-11-26T18:56:03.211Z,4.58
2022-11-26T18:58:31.214Z,4.58
2022-11-26T19:00:59.758Z,4.60
2022-11-26T19:03:28.555Z,4.59
2022-11-26T19:05:56.981Z,4.57
2022-11-26T19:08:24.939Z,4.60
2022-11-26T19:10:52.761Z,4.59
2022-11-26T19:13:20.616Z,4.59
2022-11-26T19:15:49.016Z,4.57
2022-11-26T19:18:17.382Z,4.53
2022-11-26T19:20:54.017Z,4.56
2022-11-26T19:23:25.526Z,4.55
2022-11-26T19:25:53.365Z,4.56
2022-11-26T19:28:21.045Z,4.54
2022-11-26T19:31:06.266Z,4.53
2022-11-26T19:33:34.588Z,4.58
2022-11-26T19:36:11.949Z,4.56
2022-11-26T19:38:40.254Z,4.53
2022-11-26T19:41:08.315Z,4.52
2022-11-26T19:43:38.956Z,4.57
2022-11-26T19:46:12.761Z,4.60
2022-11-26T19:48:43.429Z,4.64
2022-11-26T19:51:12.849Z,4.62
2022-11-26T19:53:40.993Z,4.61
2022-11-26T19:56:41.314Z,4.57
2022-11-26T19:59:08.915Z,4.55
2022-11-26T20:01:36.715Z,4.60
2022-11-26T20:04:08.329Z,4.58
2022-11-26T20:06:37.344Z,4.60
2022-11-26T20:09:07.249Z,4.62
2022-11-26T20:11:38.611Z,4.65
2022-11-26T20:14:07.015Z,4.66
2022-11-26T20:16:34.779Z,4.65
2022-11-26T20:19:03.504Z,4.66
2022-11-26T20:21:33.467Z,4.67
2022-11-26T20:24:03.700Z,4.66
2022-11-26T20:26:39.364Z,4.63
2022-11-26T20:29:09.756Z,4.59
2022-11-26T20:31:41.420Z,4.51
2022-11-26T20:34:09.136Z,4.46
2022-11-26T20:36:36.804Z,4.46
2022-11-26T20:39:04.973Z,4.39
2022-11-26T20:41:32.739Z,4.26
2022-11-26T20:44:00.557Z,4.20
2022-11-26T20:46:29.407Z,4.08
2022-11-26T20:48:58.032Z,4.01
2022-11-26T20:51:29.093Z,4.00
2022-11-26T20:54:00.054Z,3.90
2022-11-26T20:56:28.845Z,3.84
2022-11-26T20:58:56.971Z,3.85
2022-11-26T21:01:26.996Z,3.78
2022-11-26T21:03:55.699Z,3.70
2022-11-26T21:06:29.650Z,3.64
2022-11-26T21:09:01.267Z,3.64
2022-11-26T21:11:29.712Z,3.68
2022-11-26T21:14:00.081Z,3.69
2022-11-26T21:16:29.099Z,3.77
2022-11-26T21:18:57.932Z,3.79
2022-11-26T21:21:27.680Z,3.82
2022-11-26T21:23:56.122Z,3.84
2022-11-26T21:26:26.319Z,3.88
2022-11-26T21:28:55.833Z,3.93
2022-11-26T21:31:24.882Z,3.99
2022-11-26T21:33:58.413Z,4.06
2022-11-26T21:36:26.694Z,4.15
2022-11-26T21:38:54.544Z,4.21
2022-11-26T21:41:22.960Z,4.26
2022-11-26T21:43:51.419Z,4.30
2022-11-26T21:46:20.281Z,4.29
2022-11-26T21:48:48.277Z,4.26
2022-11-26T21:51:20.226Z,4.30
2022-11-26T21:53:49.746Z,4.32
2022-11-26T21:56:29.186Z,4.37
2022-11-26T21:58:59.557Z,4.31
2022-11-26T22:01:35.811Z,4.32
2022-11-26T22:04:08.225Z,4.34
2022-11-26T22:06:36.504Z,4.32
2022-11-26T22:09:05.304Z,4.30
2022-11-26T22:11:37.033Z,4.34
2022-11-26T22:14:06.381Z,4.29
2022-11-26T22:16:35.082Z,4.21
2022-11-26T22:19:03.193Z,4.11
2022-11-26T22:21:34.047Z,3.93
2022-11-26T22:24:03.543Z,3.84
2022-11-26T22:26:32.416Z,3.80
2022-11-26T22:29:00.913Z,3.73
2022-11-26T22:31:31.631Z,3.75
2022-11-26T22:34:11.681Z,3.72
2022-11-26T22:36:39.901Z,3.66
2022-11-26T22:39:12.032Z,3.63
2022-11-26T22:41:41.794Z,3.65
2022-11-26T22:44:10.205Z,3.63
2022-11-26T22:46:39.537Z,3.60
2022-11-26T22:49:08.139Z,3.59
2022-11-26T22:51:36.424Z,3.61
2022-11-26T22:54:08.166Z,3.60
2022-11-26T22:56:38.872Z,3.55
2022-11-26T22:59:08.169Z,3.52
2022-11-26T23:01:38.040Z,3.49
2022-11-26T23:04:08.823Z,3.43
2022-11-26T23:06:37.217Z,3.37
2022-11-26T23:09:07.000Z,3.25
2022-11-26T23:11:39.211Z,3.14
2022-11-26T23:14:08.444Z,3.09
2022-11-26T23:16:38.027Z,2.96
2022-11-26T23:19:06.764Z,2.95
2022-11-26T23:21:40.787Z,2.95
2022-11-26T23:24:09.330Z,2.95
2022-11-26T23:26:38.720Z,2.96
2022-11-26T23:29:07.676Z,2.90
2022-11-26T23:31:41.502Z,2.88
2022-11-26T23:34:10.611Z,2.91
2022-11-26T23:36:39.492Z,3.03
2022-11-26T23:39:09.340Z,3.04
2022-11-26T23:41:37.723Z,3.05
2022-11-26T23:44:05.610Z,3.09
2022-11-26T23:46:36.391Z,3.13
2022-11-26T23:49:05.198Z,3.14
2022-11-26T23:51:33.788Z,3.16
2022-11-26T23:54:01.903Z,3.18
2022-11-26T23:56:32.301Z,3.26
2022-11-26T23:59:02.949Z,3.40
